createdAt,value
2022-10-05T00:01:56.935Z,101293.09
2022-10-05T00:04:24.943Z,101299.84
2022-10-05T00:07:04.521Z,101300.88
2022-10-05T00:09:32.842Z,101289.63
2022-10-05T00:12:02.850Z,101304.09
2022-10-05T00:14:32.884Z,101302.53
2022-10-05T00:17:01.419Z,101304.66
2022-10-05T00:19:33.124Z,101299.09
2022-10-05T00:22:11.948Z,101308.56
2022-10-05T00:24:40.419Z,101315.28
2022-10-05T00:27:36.346Z,101320.66
2022-10-05T00:30:17.932Z,101312.94
2022-10-05T00:32:46.111Z,101313.97
2022-10-05T00:35:14.389Z,101310.13
2022-10-05T00:37:43.862Z,101313.34
2022-10-05T00:40:45.364Z,101315.97
2022-10-05T00:43:19.040Z,101323.13
2022-10-05T00:45:50.554Z,101325.22
2022-10-05T00:48:31.152Z,101335.19
2022-10-05T00:51:17.358Z,101333.63
2022-10-05T00:54:07.115Z,101334.09
2022-10-05T00:56:35.411Z,101341.00
2022-10-05T00:59:11.849Z,101347.91
2022-10-05T01:02:03.102Z,101342.25
2022-10-05T01:04:59.720Z,101348.00
2022-10-05T01:07:51.022Z,101348.28
2022-10-05T01:10:32.937Z,101351.31
2022-10-05T01:13:04.053Z,101355.97
2022-10-05T01:15:43.081Z,101356.25
2022-10-05T01:18:22.440Z,101356.19
2022-10-05T01:20:56.548Z,101359.16
2022-10-05T01:23:53.576Z,101366.63
2022-10-05T01:26:49.810Z,101371.88
2022-10-05T01:29:24.557Z,101367.06
2022-10-05T01:32:29.492Z,101373.56
2022-10-05T01:35:03.188Z,101382.13
2022-10-05T01:37:44.861Z,101380.41
2022-10-05T01:40:48.972Z,101380.56
2022-10-05T01:43:36.662Z,101379.88
2022-10-05T01:46:23.745Z,101376.28
2022-10-05T01:48:54.078Z,101378.25
2022-10-05T01:51:43.835Z,101385.06
2022-10-05T01:54:27.312Z,101388.94
2022-10-05T01:57:21.664Z,101384.84
2022-10-05T02:00:11.823Z,101377.63
2022-10-05T02:02:49.152Z,101391.75
2022-10-05T02:05:26.462Z,101387.88
2022-10-05T02:08:00.876Z,101388.97
2022-10-05T02:10:38.783Z,101385.78
2022-10-05T02:13:15.608Z,101387.13
2022-10-05T02:15:50.169Z,101393.94
2022-10-05T02:18:25.609Z,101397.22
2022-10-05T02:20:53.460Z,101393.34
2022-10-05T02:23:22.432Z,101394.03
2022-10-05T02:25:51.512Z,101396.16
2022-10-05T02:28:41.626Z,101389.84
2022-10-05T02:31:11.767Z,101388.00
2022-10-05T02:33:39.545Z,101388.69
2022-10-05T02:36:16.078Z,101389.63
2022-10-05T02:38:51.692Z,101402.66
2022-10-05T02:41:32.184Z,101395.88
2022-10-05T02:44:26.851Z,101405.84
2022-10-05T02:47:13.885Z,101415.56
2022-10-05T02:50:06.125Z,101422.16
2022-10-05T02:52:36.960Z,101422.69
2022-10-05T02:55:33.217Z,101433.16
2022-10-05T02:58:17.066Z,101439.25
2022-10-05T03:00:58.040Z,101447.38
2022-10-05T03:03:47.080Z,101451.28
2022-10-05T03:06:26.005Z,101459.41
2022-10-05T03:09:08.555Z,101460.59
2022-10-05T03:12:04.957Z,101469.44
2022-10-05T03:14:54.368Z,101477.75
2022-10-05T03:17:24.133Z,101470.59
2022-10-05T03:20:20.932Z,101478.75
2022-10-05T03:22:50.940Z,101476.31
2022-10-05T03:25:55.309Z,101487.47
2022-10-05T03:28:25.882Z,101482.84
2022-10-05T03:31:04.267Z,101491.00
2022-10-05T03:33:53.206Z,101496.72
2022-10-05T03:36:42.514Z,101503.13
2022-10-05T03:39:43.325Z,101511.28
2022-10-05T03:42:32.852Z,101521.78
2022-10-05T03:45:07.590Z,101513.63
2022-10-05T03:48:00.442Z,101520.59
2022-10-05T03:50:46.441Z,101523.94
2022-10-05T03:53:26.396Z,101520.91
2022-10-05T03:56:07.560Z,101532.34
2022-10-05T03:58:40.164Z,101538.34
2022-10-05T04:01:15.487Z,101541.13
2022-10-05T04:03:48.949Z,101541.88
2022-10-05T04:06:19.181Z,101545.00
2022-10-05T04:08:53.633Z,101546.31
2022-10-05T04:11:47.372Z,101550.84
2022-10-05T04:14:26.939Z,101560.97
2022-10-05T04:17:10.111Z,101566.34
2022-10-05T04:19:46.260Z,101564.22
2022-10-05T04:22:14.589Z,101575.19
2022-10-05T04:24:49.987Z,101572.41
2022-10-05T04:27:39.424Z,101568.91
2022-10-05T04:30:18.140Z,101578.56
2022-10-05T04:32:55.044Z,101572.72
2022-10-05T04:35:44.181Z,101577.44
2022-10-05T04:38:50.117Z,101578.06
2022-10-05T04:41:46.993Z,101575.22
2022-10-05T04:44:29.183Z,101585.53
2022-10-05T04:47:15.153Z,101583.56
2022-10-05T04:49:49.088Z,101581.59
2022-10-05T04:52:20.229Z,101583.81
2022-10-05T04:54:56.732Z,101580.09
2022-10-05T04:57:29.049Z,101585.78
2022-10-05T05:00:05.727Z,101579.31
2022-10-05T05:02:54.855Z,101582.44
2022-10-05T05:06:19.289Z,101586.03
2022-10-05T05:09:12.100Z,101585.56
2022-10-05T05:12:22.050Z,101583.00
2022-10-05T05:15:08.363Z,101592.84
2022-10-05T05:17:59.704Z,101585.88
2022-10-05T05:20:33.294Z,101585.34
2022-10-05T05:23:38.117Z,101588.06
2022-10-05T05:26:06.086Z,101581.97
2022-10-05T05:28:42.833Z,101587.25
2022-10-05T05:31:16.017Z,101585.75
2022-10-05T05:33:49.697Z,101586.13
2022-10-05T05:36:27.647Z,101581.69
2022-10-05T05:39:27.151Z,101581.06
2022-10-05T05:42:12.201Z,101587.56
2022-10-05T05:44:51.458Z,101590.81
2022-10-05T05:47:35.487Z,101591.88
2022-10-05T05:50:25.696Z,101585.56
2022-10-05T05:53:07.393Z,101593.25
2022-10-05T05:55:44.238Z,101579.56
2022-10-05T05:58:33.095Z,101591.50
2022-10-05T06:01:30.698Z,101579.69
2022-10-05T06:04:01.821Z,101577.13
2022-10-05T06:06:35.844Z,101572.00
2022-10-05T06:09:29.987Z,101568.06
2022-10-05T06:12:09.832Z,101585.28
2022-10-05T06:14:48.369Z,101579.44
2022-10-05T06:17:22.593Z,101590.19
2022-10-05T06:19:50.965Z,101586.06
2022-10-05T06:22:35.018Z,101590.84
2022-10-05T06:25:12.798Z,101587.22
2022-10-05T06:28:11.369Z,101603.63
2022-10-05T06:31:02.411Z,101586.94
2022-10-05T06:33:42.353Z,101592.78
2022-10-05T06:36:28.418Z,101601.09
2022-10-05T06:38:56.216Z,101597.75
2022-10-05T06:41:33.072Z,101608.59
2022-10-05T06:44:17.312Z,101605.09
2022-10-05T06:46:50.829Z,101606.25
2022-10-05T06:49:52.178Z,101609.38
2022-10-05T06:53:10.940Z,101604.19
2022-10-05T06:55:45.151Z,101605.19
2022-10-05T06:58:23.753Z,101606.50
2022-10-05T07:01:18.603Z,101605.59
2022-10-05T07:03:54.604Z,101596.44
2022-10-05T07:06:45.929Z,101612.09
2022-10-05T07:09:45.915Z,101622.81
2022-10-05T07:12:37.151Z,101614.03
2022-10-05T07:15:42.338Z,101619.59
2022-10-05T07:18:26.640Z,101624.06
2022-10-05T07:21:07.533Z,101635.09
2022-10-05T07:24:01.505Z,101621.09
2022-10-05T07:26:42.949Z,101628.63
2022-10-05T07:29:24.715Z,101633.81
2022-10-05T07:32:11.499Z,101628.34
2022-10-05T07:35:01.571Z,101654.94
2022-10-05T07:37:58.045Z,101647.38
2022-10-05T07:40:38.231Z,101639.00
2022-10-05T07:43:45.255Z,101650.28
2022-10-05T07:46:57.010Z,101653.44
2022-10-05T07:49:46.041Z,101660.84
2022-10-05T07:52:34.552Z,101665.81
2022-10-05T07:55:10.619Z,101655.59
2022-10-05T07:58:29.863Z,101654.09
2022-10-05T08:01:25.203Z,101664.97
2022-10-05T08:04:45.316Z,101667.53
2022-10-05T08:07:14.025Z,101676.13
2022-10-05T08:10:03.452Z,101676.69
2022-10-05T08:12:48.690Z,101680.41
2022-10-05T08:15:18.683Z,101678.31
2022-10-05T08:17:54.738Z,101678.31
2022-10-05T08:20:47.490Z,101690.25
2022-10-05T08:23:24.173Z,101687.44
2022-10-05T08:26:24.182Z,101682.56
2022-10-05T08:28:54.549Z,101678.66
2022-10-05T08:31:32.330Z,101698.94
2022-10-05T08:34:22.254Z,101689.28
2022-10-05T08:37:06.015Z,101700.28
2022-10-05T08:39:41.097Z,101700.88
2022-10-05T08:42:09.986Z,101694.38
2022-10-05T08:44:52.618Z,101706.53
2022-10-05T08:47:21.961Z,101714.22
2022-10-05T08:50:23.338Z,101705.88
2022-10-05T08:53:25.601Z,101706.25
2022-10-05T08:56:19.109Z,101703.22
2022-10-05T08:58:54.003Z,101709.28
2022-10-05T09:01:46.953Z,101715.38
2022-10-05T09:04:30.261Z,101702.75
2022-10-05T09:07:06.981Z,101702.22
2022-10-05T09:09:47.356Z,101702.72
2022-10-05T09:12:27.142Z,101708.31
2022-10-05T09:15:26.802Z,101696.53
2022-10-05T09:18:15.142Z,101689.78
2022-10-05T09:20:53.392Z,101708.38
2022-10-05T09:23:36.067Z,101708.28
2022-10-05T09:26:41.819Z,101703.00
2022-10-05T09:29:37.237Z,101706.84
2022-10-05T09:32:40.109Z,101712.41
2022-10-05T09:35:19.768Z,101705.63
2022-10-05T09:38:25.061Z,101711.50
2022-10-05T09:41:11.879Z,101704.69
2022-10-05T09:43:59.363Z,101695.56
2022-10-05T09:46:46.240Z,101716.94
2022-10-05T09:49:19.913Z,101707.06
2022-10-05T09:52:00.508Z,101719.63
2022-10-05T09:54:43.818Z,101698.69
2022-10-05T09:57:39.550Z,101706.81
2022-10-05T10:00:40.999Z,101713.09
2022-10-05T10:03:46.250Z,101705.47
2022-10-05T10:06:19.764Z,101705.63
2022-10-05T10:09:08.356Z,101685.84
2022-10-05T10:11:41.811Z,101696.06
2022-10-05T10:14:34.197Z,101700.22
2022-10-05T10:17:20.044Z,101714.56
2022-10-05T10:20:19.967Z,101715.97
2022-10-05T10:23:10.175Z,101714.97
2022-10-05T10:26:18.536Z,101721.22
2022-10-05T10:29:01.215Z,101715.97
2022-10-05T10:31:38.093Z,101717.22
2022-10-05T10:34:41.019Z,101714.59
2022-10-05T10:37:24.261Z,101721.03
2022-10-05T10:39:55.726Z,101720.69
2022-10-05T10:42:41.513Z,101723.56
2022-10-05T10:45:08.997Z,101725.19
2022-10-05T10:48:02.212Z,101712.97
2022-10-05T10:50:57.723Z,101722.50
2022-10-05T10:54:03.774Z,101707.69
2022-10-05T10:56:58.696Z,101708.19
2022-10-05T10:59:57.389Z,101697.69
2022-10-05T11:02:31.932Z,101702.53
2022-10-05T11:05:23.041Z,101706.56
2022-10-05T11:08:03.036Z,101705.28
2022-10-05T11:11:04.925Z,101701.66
2022-10-05T11:14:21.208Z,101703.69
2022-10-05T11:17:11.006Z,101707.53
2022-10-05T11:20:04.839Z,101721.78
2022-10-05T11:22:51.909Z,101716.97
2022-10-05T11:25:44.590Z,101712.53
2022-10-05T11:28:27.686Z,101713.09
2022-10-05T11:31:20.647Z,101712.91
2022-10-05T11:34:17.351Z,101712.91
2022-10-05T11:36:44.918Z,101718.75
2022-10-05T11:39:23.503Z,101714.53
2022-10-05T11:42:06.787Z,101700.41
2022-10-05T11:47:57.222Z,101741.53
2022-10-05T11:50:42.680Z,101729.97
2022-10-05T11:53:27.296Z,101726.56
2022-10-05T11:56:13.706Z,101732.09
2022-10-05T11:58:58.085Z,101738.00
2022-10-05T12:01:30.544Z,101724.72
2022-10-05T12:04:16.791Z,101717.91
2022-10-05T12:06:51.086Z,101729.47
2022-10-05T12:10:01.862Z,101731.78
2022-10-05T12:12:31.522Z,101719.94
2022-10-05T12:15:14.062Z,101731.97
2022-10-05T12:17:51.298Z,101739.19
2022-10-05T12:20:18.868Z,101731.88
2022-10-05T12:22:54.577Z,101731.50
2022-10-05T12:25:26.332Z,101731.00
2022-10-05T12:27:56.844Z,101736.34
2022-10-05T12:30:49.180Z,101733.56
2022-10-05T12:33:43.953Z,101749.03
2022-10-05T12:36:15.485Z,101737.38
2022-10-05T12:39:05.214Z,101748.94
2022-10-05T12:41:53.961Z,101758.28
2022-10-05T12:44:42.263Z,101757.06
2022-10-05T12:47:35.395Z,101751.28
2022-10-05T12:50:28.492Z,101752.91
2022-10-05T12:53:02.314Z,101759.13
2022-10-05T12:55:54.815Z,101759.44
2022-10-05T12:58:28.980Z,101766.84
2022-10-05T13:01:25.358Z,101768.47
2022-10-05T13:04:01.157Z,101774.06
2022-10-05T13:06:53.370Z,101776.69
2022-10-05T13:10:03.715Z,101784.81
2022-10-05T13:12:41.334Z,101791.41
2022-10-05T13:15:47.876Z,101774.03
2022-10-05T13:18:21.777Z,101788.00
2022-10-05T13:21:26.777Z,101792.47
2022-10-05T13:24:15.169Z,101788.41
2022-10-05T13:26:45.901Z,101793.72
2022-10-05T13:29:31.781Z,101797.13
2022-10-05T13:32:18.252Z,101797.75
2022-10-05T13:34:52.701Z,101808.78
2022-10-05T13:37:32.688Z,101809.91
2022-10-05T13:40:37.188Z,101809.66
2022-10-05T13:43:44.071Z,101824.13
2022-10-05T13:46:33.532Z,101827.25
2022-10-05T13:49:22.005Z,101824.94
2022-10-05T13:52:04.422Z,101830.19
2022-10-05T13:55:09.433Z,101837.66
2022-10-05T13:58:09.428Z,101846.56
2022-10-05T14:01:34.050Z,101842.97
2022-10-05T14:04:50.960Z,101841.97
2022-10-05T14:07:38.323Z,101842.03
2022-10-05T14:10:13.403Z,101842.91
2022-10-05T14:12:43.646Z,101836.81
2022-10-05T14:15:30.636Z,101842.06
2022-10-05T14:17:58.403Z,101840.22
2022-10-05T14:20:31.682Z,101849.66
2022-10-05T14:23:03.842Z,101846.97
2022-10-05T14:25:32.176Z,101853.69
2022-10-05T14:28:03.979Z,101848.38
2022-10-05T14:30:32.361Z,101851.88
2022-10-05T14:33:05.721Z,101854.50
2022-10-05T14:35:50.625Z,101867.97
2022-10-05T14:38:29.868Z,101863.56
2022-10-05T14:41:17.727Z,101866.00
2022-10-05T14:44:06.318Z,101869.63
2022-10-05T14:46:35.596Z,101882.59
2022-10-05T14:49:22.942Z,101881.44
2022-10-05T14:51:51.346Z,101888.84
2022-10-05T14:54:34.262Z,101892.28
2022-10-05T14:57:23.324Z,101898.31
2022-10-05T15:00:12.948Z,101902.63
2022-10-05T15:02:51.821Z,101901.81
2022-10-05T15:05:31.382Z,101906.63
2022-10-05T15:08:08.950Z,101901.47
2022-10-05T15:10:37.653Z,101900.97
2022-10-05T15:13:11.627Z,101908.69
2022-10-05T15:15:54.880Z,101903.22
2022-10-05T15:18:32.139Z,101907.16
2022-10-05T15:21:06.439Z,101906.13
2022-10-05T15:23:47.562Z,101906.47
2022-10-05T15:26:37.264Z,101917.09
2022-10-05T15:29:26.192Z,101911.78
2022-10-05T15:32:15.587Z,101907.13
2022-10-05T15:35:08.515Z,101910.03
2022-10-05T15:37:42.253Z,101907.28
2022-10-05T15:40:43.130Z,101905.53
2022-10-05T15:43:13.961Z,101912.03
2022-10-05T15:46:14.163Z,101909.59
2022-10-05T15:48:54.638Z,101912.66
2022-10-05T15:51:36.549Z,101921.81
2022-10-05T15:54:40.990Z,101930.84
2022-10-05T15:57:18.240Z,101927.38
2022-10-05T15:59:55.812Z,101933.66
2022-10-05T16:02:33.382Z,101938.13
2022-10-05T16:05:06.237Z,101935.50
2022-10-05T16:07:59.676Z,101943.16
2022-10-05T16:10:34.124Z,101937.19
2022-10-05T16:13:07.513Z,101945.47
2022-10-05T16:15:48.745Z,101941.47
2022-10-05T16:18:40.937Z,101944.69
2022-10-05T16:21:32.417Z,101939.59
2022-10-05T16:24:06.444Z,101941.66
2022-10-05T16:26:53.796Z,101935.97
2022-10-05T16:29:40.465Z,101937.75
2022-10-05T16:32:37.229Z,101939.41
2022-10-05T16:35:17.097Z,101935.72
2022-10-05T16:38:22.488Z,101947.22
2022-10-05T16:41:02.892Z,101940.41
2022-10-05T16:43:40.432Z,101941.91
2022-10-05T16:46:27.881Z,101951.19
2022-10-05T16:49:04.467Z,101943.69
2022-10-05T16:51:39.507Z,101939.69
2022-10-05T16:54:15.372Z,101945.22
2022-10-05T16:56:48.446Z,101951.69
2022-10-05T16:59:53.600Z,101941.47
2022-10-05T17:02:55.492Z,101942.31
2022-10-05T17:06:04.784Z,101948.63
2022-10-05T17:08:36.805Z,101950.50
2022-10-05T17:11:25.775Z,101950.69
2022-10-05T17:14:16.091Z,101953.03
2022-10-05T17:16:55.828Z,101951.28
2022-10-05T17:19:46.756Z,101952.09
2022-10-05T17:22:40.040Z,101953.91
2022-10-05T17:25:25.264Z,101947.03
2022-10-05T17:27:54.829Z,101950.63
2022-10-05T17:30:48.634Z,101955.22
2022-10-05T17:33:27.640Z,101946.59
2022-10-05T17:36:04.727Z,101949.31
2022-10-05T17:38:34.280Z,101947.19
2022-10-05T17:41:20.477Z,101949.38
2022-10-05T17:44:07.184Z,101953.91
2022-10-05T17:46:48.667Z,101950.22
2022-10-05T17:49:22.176Z,101955.78
2022-10-05T17:52:11.458Z,101956.34
2022-10-05T17:55:03.851Z,101954.91
2022-10-05T17:57:32.093Z,101952.19
2022-10-05T18:00:02.776Z,101958.03
2022-10-05T18:02:36.679Z,101963.19
2022-10-05T18:05:12.806Z,101962.56
2022-10-05T18:07:42.157Z,101965.59
2022-10-05T18:10:09.631Z,101969.50
2022-10-05T18:12:38.809Z,101963.50
2022-10-05T18:15:06.526Z,101969.25
2022-10-05T18:17:47.831Z,101975.09
2022-10-05T18:20:28.842Z,101974.19
2022-10-05T18:23:09.715Z,101983.28
2022-10-05T18:26:20.492Z,101979.72
2022-10-05T18:29:13.914Z,101974.25
2022-10-05T18:31:46.746Z,101980.94
2022-10-05T18:34:17.211Z,101980.22
2022-10-05T18:37:18.276Z,101978.16
2022-10-05T18:39:51.999Z,101980.72
2022-10-05T18:42:25.578Z,101974.94
2022-10-05T18:45:17.077Z,101976.66
2022-10-05T18:48:03.233Z,101978.28
2022-10-05T18:51:01.004Z,101975.56
2022-10-05T18:53:51.145Z,101979.41
2022-10-05T18:56:35.713Z,101989.84
2022-10-05T18:59:24.273Z,101989.84
2022-10-05T19:02:07.281Z,101992.25
2022-10-05T19:04:57.181Z,101997.06
2022-10-05T19:07:28.160Z,101999.66
2022-10-05T19:10:05.050Z,101999.47
2022-10-05T19:12:43.395Z,101997.63
2022-10-05T19:15:29.371Z,101992.94
2022-10-05T19:18:34.314Z,101990.84
2022-10-05T19:21:10.976Z,101994.63
2022-10-05T19:23:57.700Z,102002.75
2022-10-05T19:26:40.646Z,101992.56
2022-10-05T19:29:30.484Z,101993.09
2022-10-05T19:32:18.738Z,101996.88
2022-10-05T19:35:07.536Z,101998.28
2022-10-05T19:37:37.972Z,101998.28
2022-10-05T19:40:36.721Z,101991.81
2022-10-05T19:43:38.365Z,101992.09
2022-10-05T19:46:27.967Z,101990.28
2022-10-05T19:48:55.677Z,101995.38
2022-10-05T19:51:34.657Z,101993.91
2022-10-05T19:54:12.996Z,102000.16
2022-10-05T19:56:51.183Z,102001.31
2022-10-05T19:59:25.261Z,102004.81
2022-10-05T20:01:55.536Z,102012.09
2022-10-05T20:04:34.249Z,102005.22
2022-10-05T20:07:02.542Z,101997.66
2022-10-05T20:09:30.322Z,102002.00
2022-10-05T20:11:58.169Z,101990.69
2022-10-05T20:14:31.052Z,101994.81
2022-10-05T20:17:47.584Z,101996.97
2022-10-05T20:20:45.765Z,101993.59
2022-10-05T20:23:24.152Z,102000.22
2022-10-05T20:26:11.301Z,101988.91
2022-10-05T20:28:39.217Z,101997.56
2022-10-05T20:31:08.202Z,101999.72
2022-10-05T20:33:36.016Z,101998.59
2022-10-05T20:36:04.271Z,102003.47
2022-10-05T20:38:35.174Z,102004.81
2022-10-05T20:41:05.245Z,101996.50
2022-10-05T20:43:32.897Z,101996.53
2022-10-05T20:46:00.668Z,101994.25
2022-10-05T20:48:28.564Z,102000.41
2022-10-05T20:50:56.508Z,102005.59
2022-10-05T20:53:24.168Z,102000.16
2022-10-05T20:55:52.099Z,102002.72
2022-10-05T20:58:19.988Z,102001.47
2022-10-05T21:01:06.342Z,102011.31
2022-10-05T21:03:35.520Z,102008.47
2022-10-05T21:06:05.514Z,102006.75
2022-10-05T21:08:37.028Z,102006.72
2022-10-05T21:11:11.183Z,102001.69
2022-10-05T21:13:42.688Z,101996.69
2022-10-05T21:16:14.324Z,102003.16
2022-10-05T21:18:44.589Z,102000.97
2022-10-05T21:21:12.840Z,101998.19
2022-10-05T21:23:40.727Z,102000.06
2022-10-05T21:26:08.384Z,101996.16
2022-10-05T21:28:36.106Z,101997.56
2022-10-05T21:31:07.017Z,101990.97
2022-10-05T21:33:37.495Z,101975.63
2022-10-05T21:36:05.362Z,101979.75
2022-10-05T21:38:33.196Z,101980.72
2022-10-05T21:41:01.012Z,101976.63
2022-10-05T21:43:28.920Z,101988.78
2022-10-05T21:45:57.118Z,101988.59
2022-10-05T21:48:25.255Z,101993.41
2022-10-05T21:50:53.265Z,101996.31
2022-10-05T21:53:22.277Z,101995.13
2022-10-05T21:55:50.328Z,102001.47
2022-10-05T21:58:20.481Z,101996.13
2022-10-05T22:00:48.284Z,101991.72
2022-10-05T22:03:15.885Z,102000.19
2022-10-05T22:05:43.501Z,101998.41
2022-10-05T22:08:29.204Z,101996.50
2022-10-05T22:10:57.443Z,101990.13
2022-10-05T22:13:26.257Z,101995.56
2022-10-05T22:15:55.631Z,101994.34
2022-10-05T22:18:24.693Z,102011.75
2022-10-05T22:20:53.384Z,102013.88
2022-10-05T22:23:21.043Z,102009.97
2022-10-05T22:25:48.806Z,102010.28
2022-10-05T22:28:16.610Z,102011.06
2022-10-05T22:30:44.813Z,102002.41
2022-10-05T22:33:13.416Z,102007.72
2022-10-05T22:35:41.484Z,102011.44
2022-10-05T22:38:09.053Z,102009.75
2022-10-05T22:40:36.911Z,102003.56
2022-10-05T22:43:05.384Z,102006.28
2022-10-05T22:45:33.298Z,102008.63
2022-10-05T22:48:01.102Z,102014.09
2022-10-05T22:50:29.094Z,102013.69
2022-10-05T22:52:57.564Z,102015.44
2022-10-05T22:55:25.381Z,102018.84
2022-10-05T22:57:53.122Z,102021.44
2022-10-05T23:00:27.541Z,102015.44
2022-10-05T23:02:58.837Z,102012.00
2022-10-05T23:05:27.292Z,102012.59
2022-10-05T23:07:56.469Z,102014.63
2022-10-05T23:10:24.589Z,102017.81
2022-10-05T23:13:00.484Z,102012.84
2022-10-05T23:15:28.838Z,102003.22
2022-10-05T23:18:00.597Z,102003.00
2022-10-05T23:20:28.256Z,102005.16
2022-10-05T23:22:55.912Z,102001.50
2022-10-05T23:25:23.657Z,102006.38
2022-10-05T23:27:51.735Z,102006.97
2022-10-05T23:30:19.517Z,101998.84
2022-10-05T23:32:48.305Z,101995.25
2022-10-05T23:35:15.972Z,101993.16
2022-10-05T23:37:44.332Z,101987.81
2022-10-05T23:40:13.743Z,101983.00
2022-10-05T23:42:41.514Z,101989.59
2022-10-05T23:45:10.643Z,101981.72
2022-10-05T23:47:39.902Z,101991.06
2022-10-05T23:50:07.996Z,101994.66
2022-10-05T23:52:36.321Z,101994.03
2022-10-05T23:55:05.007Z,101994.16
2022-10-05T23:57:32.993Z,101993.16
